Time;durP1;ratioP1;P1;durP2;ratioP2;P2;SDS_P1;SDS_P2;PMS_P1;PMS_P2;Temp;Humidity;BMP_temperature;BMP_pressure;BME280_temperature;BME280_humidity;BME280_pressure;Samples;Min_cycle;Max_cycle;Signal;HPM_P1;HPM_P2
2023/08/01 00:01:21;;;;;;;;;;;;;;;;;;5014178;28;19998;-64
2023/08/01 00:03:47;;;;;;;;;;;;;;;;;;5021112;28;20388;-65
2023/08/01 00:06:13;;;;;;;;;;;;;;;;;;5015553;28;19959;-64
2023/08/01 00:08:39;;;;;;;;;;;;;;;;;;5019038;28;20402;-64
2023/08/01 00:11:05;;;;;;;;;;;;;;;;;;5015573;28;20004;-64
2023/08/01 00:13:31;;;;;;;;;;;;;;;;;;5014634;28;19913;-64
2023/08/01 00:15:57;;;;;;;;;;;;;;;;;;5025464;28;20015;-64
2023/08/01 00:18:23;;;;;;;;;;;;;;;;;;5023009;28;20077;-64
2023/08/01 00:20:49;;;;;;;;;;;;;;;;;;5017110;28;19932;-64
2023/08/01 00:23:15;;;;;;;;;;;;;;;;;;5035593;28;19913;-63
2023/08/01 00:25:41;;;;;;;;;;;;;;;;;;5016609;28;20288;-65
2023/08/01 00:28:07;;;;;;;;;;;;;;;;;;5015590;28;19914;-64
2023/08/01 00:30:33;;;;;;;;;;;;;;;;;;5016476;28;19971;-67
2023/08/01 00:32:59;;;;;;;;;;;;;;;;;;5022262;28;20000;-67
2023/08/01 00:35:24;;;;;;;;;;;;;;;;;;5019465;28;20407;-65
2023/08/01 00:37:50;;;;;;;;;;;;;;;;;;5014047;28;19918;-66
2023/08/01 00:40:17;;;;;;;;;;;;;;;;;;5018113;28;20343;-66
2023/08/01 00:42:43;;;;;;;;;;;;;;;;;;5013433;28;20036;-66
2023/08/01 00:45:09;;;;;;;;;;;;;;;;;;5017995;28;20043;-65
2023/08/01 00:47:35;;;;;;;;;;;;;;;;;;5031126;28;20335;-65
2023/08/01 00:50:01;;;;;;;;;;;;;;;;;;5014011;28;19920;-66
2023/08/01 00:52:27;;;;;;;;;;;;;;;;;;5014036;28;19953;-65
2023/08/01 00:54:52;;;;;;;;;;;;;;;;;;5012901;28;20000;-65
2023/08/01 00:57:18;;;;;;;;;;;;;;;;;;5012878;28;19927;-65
2023/08/01 00:59:44;;;;;;;;;;;;;;;;;;5016753;28;19917;-67
2023/08/01 01:02:11;;;;;;;;;;;;;;;;;;5019422;28;19964;-67
2023/08/01 01:04:37;;;;;;;;;;;;;;;;;;5018822;28;19921;-66
2023/08/01 01:07:03;;;;;;;;;;;;;;;;;;5013398;28;19964;-67
2023/08/01 01:09:31;;;;;;;;;;;;;;;;;;5021267;28;19913;-66
2023/08/01 01:11:57;;;;;;;;;;;;;;;;;;5022857;28;19921;-66
2023/08/01 01:14:23;;;;;;;;;;;;;;;;;;5011260;28;20355;-65
2023/08/01 01:16:49;;;;;;;;;;;;;;;;;;5011520;28;19960;-65
2023/08/01 01:19:15;;;;;;;;;;;;;;;;;;5011680;28;20004;-64
2023/08/01 01:21:41;;;;;;;;;;;;;;;;;;5012620;28;19917;-66
2023/08/01 01:24:07;;;;;;;;;;;;;;;;;;5012244;28;20411;-66
2023/08/01 01:26:33;;;;;;;;;;;;;;;;;;5013199;28;19921;-66
2023/08/01 01:28:58;;;;;;;;;;;;;;;;;;5013922;28;19960;-66
2023/08/01 01:31:24;;;;;;;;;;;;;;;;;;5014900;28;20384;-66
2023/08/01 01:33:50;;;;;;;;;;;;;;;;;;5010813;28;19962;-66
2023/08/01 01:36:16;;;;;;;;;;;;;;;;;;5013565;28;20269;-67
2023/08/01 01:38:42;;;;;;;;;;;;;;;;;;5012478;28;19996;-67
2023/08/01 01:41:08;;;;;;;;;;;;;;;;;;5013881;28;19920;-66
2023/08/01 01:43:34;;;;;;;;;;;;;;;;;;5012518;28;19925;-66
2023/08/01 01:46:00;;;;;;;;;;;;;;;;;;5011684;28;19929;-66
2023/08/01 01:48:25;;;;;;;;;;;;;;;;;;5013523;28;20016;-66
2023/08/01 01:50:51;;;;;;;;;;;;;;;;;;5014311;28;19992;-66
2023/08/01 01:53:17;;;;;;;;;;;;;;;;;;5017796;28;19918;-66
2023/08/01 01:55:43;;;;;;;;;;;;;;;;;;4994276;28;20367;-65
2023/08/01 01:58:09;;;;;;;;;;;;;;;;;;5012846;28;20008;-66
2023/08/01 02:00:35;;;;;;;;;;;;;;;;;;5007780;28;19980;-66
2023/08/01 02:03:02;;;;;;;;;;;;;;;;;;5010982;28;19925;-66
2023/08/01 02:05:28;;;;;;;;;;;;;;;;;;5012128;28;19992;-66
2023/08/01 02:07:54;;;;;;;;;;;;;;;;;;5012643;28;20000;-66
2023/08/01 02:10:20;;;;;;;;;;;;;;;;;;5011585;28;19980;-66
2023/08/01 02:12:46;;;;;;;;;;;;;;;;;;5012478;28;19913;-66
2023/08/01 02:15:12;;;;;;;;;;;;;;;;;;5012464;28;19949;-66
2023/08/01 02:17:38;;;;;;;;;;;;;;;;;;5014757;28;20450;-66
2023/08/01 02:20:03;;;;;;;;;;;;;;;;;;5022665;28;19924;-66
2023/08/01 02:22:29;;;;;;;;;;;;;;;;;;5011770;28;19949;-66
2023/08/01 02:24:55;;;;;;;;;;;;;;;;;;5012392;28;19919;-66
2023/08/01 02:27:21;;;;;;;;;;;;;;;;;;5013290;28;19948;-66
2023/08/01 02:29:49;;;;;;;;;;;;;;;;;;5017906;28;19985;-66
2023/08/01 02:32:15;;;;;;;;;;;;;;;;;;5015890;28;19937;-66
2023/08/01 02:34:41;;;;;;;;;;;;;;;;;;5015885;28;19922;-63
2023/08/01 02:37:07;;;;;;;;;;;;;;;;;;5009308;28;19945;-66
2023/08/01 02:39:33;;;;;;;;;;;;;;;;;;5010782;28;19965;-65
2023/08/01 02:41:59;;;;;;;;;;;;;;;;;;5010671;28;19968;-66
2023/08/01 02:44:25;;;;;;;;;;;;;;;;;;5011062;28;19964;-66
2023/08/01 02:46:51;;;;;;;;;;;;;;;;;;5025959;28;19921;-65
2023/08/01 02:49:17;;;;;;;;;;;;;;;;;;5019284;28;20345;-66
2023/08/01 02:51:43;;;;;;;;;;;;;;;;;;5015184;28;20047;-66
2023/08/01 02:54:08;;;;;;;;;;;;;;;;;;5014204;28;19968;-65
2023/08/01 02:56:34;;;;;;;;;;;;;;;;;;5016713;28;20435;-66
2023/08/01 02:59:00;;;;;;;;;;;;;;;;;;5018865;28;19966;-66
2023/08/01 03:01:26;;;;;;;;;;;;;;;;;;5012294;28;19940;-66
2023/08/01 03:03:52;;;;;;;;;;;;;;;;;;5012015;28;19924;-66
2023/08/01 03:06:18;;;;;;;;;;;;;;;;;;5022542;28;19917;-66
2023/08/01 03:08:44;;;;;;;;;;;;;;;;;;5032782;28;20388;-66
2023/08/01 03:11:10;;;;;;;;;;;;;;;;;;5006159;28;19956;-66
2023/08/01 03:13:36;;;;;;;;;;;;;;;;;;5027474;28;19957;-66
2023/08/01 03:16:04;;;;;;;;;;;;;;;;;;5013962;28;20007;-65
2023/08/01 03:18:30;;;;;;;;;;;;;;;;;;5009740;28;20376;-65
2023/08/01 03:20:56;;;;;;;;;;;;;;;;;;5015618;28;19945;-66
2023/08/01 03:23:21;;;;;;;;;;;;;;;;;;5011040;28;19917;-66
2023/08/01 03:25:47;;;;;;;;;;;;;;;;;;5005776;28;19920;-62
2023/08/01 03:28:14;;;;;;;;;;;;;;;;;;5010692;28;19914;-59
2023/08/01 03:30:39;;;;;;;;;;;;;;;;;;5013126;28;20392;-60
2023/08/01 03:33:06;;;;;;;;;;;;;;;;;;5010741;28;19952;-59
2023/08/01 03:35:32;;;;;;;;;;;;;;;;;;5010871;28;19913;-61
2023/08/01 03:37:58;;;;;;;;;;;;;;;;;;5010392;28;19943;-59
2023/08/01 03:40:24;;;;;;;;;;;;;;;;;;5010638;28;20007;-61
2023/08/01 03:42:49;;;;;;;;;;;;;;;;;;5012281;28;19972;-62
2023/08/01 03:45:15;;;;;;;;;;;;;;;;;;5018114;28;20012;-59
2023/08/01 03:47:41;;;;;;;;;;;;;;;;;;5013307;28;19913;-59
2023/08/01 03:50:07;;;;;;;;;;;;;;;;;;5021369;28;19975;-63
2023/08/01 03:52:33;;;;;;;;;;;;;;;;;;5012277;28;20398;-60
2023/08/01 03:54:59;;;;;;;;;;;;;;;;;;5009718;28;20000;-60
2023/08/01 03:57:25;;;;;;;;;;;;;;;;;;5013647;28;19936;-60
2023/08/01 03:59:51;;;;;;;;;;;;;;;;;;4993459;28;20423;-61
2023/08/01 04:02:18;;;;;;;;;;;;;;;;;;5005286;28;20015;-65
2023/08/01 04:04:44;;;;;;;;;;;;;;;;;;5007073;28;19925;-62
2023/08/01 04:07:10;;;;;;;;;;;;;;;;;;5010180;28;20020;-60
2023/08/01 04:09:38;;;;;;;;;;;;;;;;;;4992814;28;19913;-61
2023/08/01 04:12:06;;;;;;;;;;;;;;;;;;5017170;28;19919;-60
2023/08/01 04:14:32;;;;;;;;;;;;;;;;;;5010313;28;19918;-60
2023/08/01 04:16:58;;;;;;;;;;;;;;;;;;4997639;28;20341;-61
2023/08/01 04:19:24;;;;;;;;;;;;;;;;;;5009991;28;20000;-61
2023/08/01 04:21:50;;;;;;;;;;;;;;;;;;5019811;28;20523;-60
2023/08/01 04:24:16;;;;;;;;;;;;;;;;;;5010526;28;19914;-61
2023/08/01 04:26:42;;;;;;;;;;;;;;;;;;5014621;28;20011;-60
2023/08/01 04:29:08;;;;;;;;;;;;;;;;;;5018342;28;20020;-60
2023/08/01 04:31:34;;;;;;;;;;;;;;;;;;5011658;28;19985;-59
2023/08/01 04:34:00;;;;;;;;;;;;;;;;;;5014873;28;19914;-65
2023/08/01 04:36:26;;;;;;;;;;;;;;;;;;5013129;28;19914;-65
2023/08/01 04:38:51;;;;;;;;;;;;;;;;;;5012962;28;20396;-65
2023/08/01 04:41:17;;;;;;;;;;;;;;;;;;5020043;28;19992;-65
2023/08/01 04:43:43;;;;;;;;;;;;;;;;;;5014485;28;19913;-65
2023/08/01 04:46:09;;;;;;;;;;;;;;;;;;5001185;28;19917;-65
2023/08/01 04:48:35;;;;;;;;;;;;;;;;;;5016778;28;19913;-65
2023/08/01 04:51:01;;;;;;;;;;;;;;;;;;5013208;28;20314;-65
2023/08/01 04:53:27;;;;;;;;;;;;;;;;;;5012484;28;19956;-65
2023/08/01 04:55:53;;;;;;;;;;;;;;;;;;5012439;28;19992;-65
2023/08/01 04:58:19;;;;;;;;;;;;;;;;;;5009050;28;19920;-65
2023/08/01 05:00:45;;;;;;;;;;;;;;;;;;5010617;28;20261;-65
2023/08/01 05:03:11;;;;;;;;;;;;;;;;;;5021274;28;19956;-65
2023/08/01 05:05:36;;;;;;;;;;;;;;;;;;5012096;28;19991;-65
2023/08/01 05:08:04;;;;;;;;;;;;;;;;;;5010032;28;21500;-64
2023/08/01 05:10:30;;;;;;;;;;;;;;;;;;5014939;28;20160;-64
2023/08/01 05:12:56;;;;;;;;;;;;;;;;;;5013432;28;19994;-65
2023/08/01 05:15:22;;;;;;;;;;;;;;;;;;5018623;28;19913;-65
2023/08/01 05:17:48;;;;;;;;;;;;;;;;;;5020071;28;20405;-65
2023/08/01 05:20:14;;;;;;;;;;;;;;;;;;5009028;28;19914;-65
2023/08/01 05:22:39;;;;;;;;;;;;;;;;;;5011167;28;20533;-65
2023/08/01 05:25:05;;;;;;;;;;;;;;;;;;5004330;28;19968;-65
2023/08/01 05:27:31;;;;;;;;;;;;;;;;;;5009531;28;20393;-65
2023/08/01 05:29:57;;;;;;;;;;;;;;;;;;5004065;28;19917;-65
2023/08/01 05:32:23;;;;;;;;;;;;;;;;;;5009998;28;19967;-65
2023/08/01 05:34:49;;;;;;;;;;;;;;;;;;5009864;28;20008;-65
2023/08/01 05:37:15;;;;;;;;;;;;;;;;;;5014617;28;20032;-65
2023/08/01 05:39:41;;;;;;;;;;;;;;;;;;5012853;28;20004;-65
2023/08/01 05:42:08;;;;;;;;;;;;;;;;;;5013680;28;19923;-64
2023/08/01 05:44:34;;;;;;;;;;;;;;;;;;5015631;28;19918;-59
2023/08/01 05:47:00;;;;;;;;;;;;;;;;;;5021870;28;19952;-61
2023/08/01 05:49:26;;;;;;;;;;;;;;;;;;5023108;28;20015;-60
2023/08/01 05:51:52;;;;;;;;;;;;;;;;;;5008275;28;19914;-62
2023/08/01 05:54:18;;;;;;;;;;;;;;;;;;5014575;28;20359;-63
2023/08/01 05:56:44;;;;;;;;;;;;;;;;;;5013574;28;19929;-60
2023/08/01 05:59:10;;;;;;;;;;;;;;;;;;5010978;28;19913;-61
2023/08/01 06:01:36;;;;;;;;;;;;;;;;;;5004911;28;20284;-60
2023/08/01 06:04:02;;;;;;;;;;;;;;;;;;5005544;28;20003;-62
2023/08/01 06:06:28;;;;;;;;;;;;;;;;;;5008863;28;19944;-60
2023/08/01 06:08:54;;;;;;;;;;;;;;;;;;5011681;28;20344;-60
2023/08/01 06:11:20;;;;;;;;;;;;;;;;;;5005258;28;19952;-61
2023/08/01 06:13:45;;;;;;;;;;;;;;;;;;5012340;28;19983;-63
2023/08/01 06:16:11;;;;;;;;;;;;;;;;;;5012150;28;20377;-62
2023/08/01 06:18:37;;;;;;;;;;;;;;;;;;5008676;28;20029;-61
2023/08/01 06:21:03;;;;;;;;;;;;;;;;;;5006787;28;20585;-61
2023/08/01 06:23:29;;;;;;;;;;;;;;;;;;5009686;28;19925;-60
2023/08/01 06:25:55;;;;;;;;;;;;;;;;;;4994239;28;19920;-60
2023/08/01 06:28:21;;;;;;;;;;;;;;;;;;4998743;28;20384;-59
2023/08/01 06:30:47;;;;;;;;;;;;;;;;;;5009532;28;20004;-60
2023/08/01 06:33:13;;;;;;;;;;;;;;;;;;5012135;28;19987;-61
2023/08/01 06:35:39;;;;;;;;;;;;;;;;;;5010533;28;19948;-61
2023/08/01 06:38:04;;;;;;;;;;;;;;;;;;5011839;28;19979;-61
2023/08/01 06:40:30;;;;;;;;;;;;;;;;;;5011530;28;20332;-61
2023/08/01 06:42:56;;;;;;;;;;;;;;;;;;5012438;28;19949;-60
2023/08/01 06:45:22;;;;;;;;;;;;;;;;;;5009970;28;20004;-63
2023/08/01 06:47:48;;;;;;;;;;;;;;;;;;4992376;28;19913;-62
2023/08/01 06:50:14;;;;;;;;;;;;;;;;;;5007824;28;20031;-63
2023/08/01 06:52:40;;;;;;;;;;;;;;;;;;4993165;28;19918;-62
2023/08/01 06:55:06;;;;;;;;;;;;;;;;;;5009507;28;20325;-61
2023/08/01 06:57:32;;;;;;;;;;;;;;;;;;5011763;28;19918;-60
2023/08/01 06:59:58;;;;;;;;;;;;;;;;;;5011099;28;20298;-63
2023/08/01 07:02:25;;;;;;;;;;;;;;;;;;5003610;28;19921;-62
2023/08/01 07:04:51;;;;;;;;;;;;;;;;;;5003579;28;19977;-59
2023/08/01 07:07:17;;;;;;;;;;;;;;;;;;5006597;28;20086;-65
2023/08/01 07:09:43;;;;;;;;;;;;;;;;;;5008848;28;19964;-61
2023/08/01 07:12:09;;;;;;;;;;;;;;;;;;5008696;28;20402;-62
2023/08/01 07:14:34;;;;;;;;;;;;;;;;;;5008863;28;19917;-61
2023/08/01 07:17:00;;;;;;;;;;;;;;;;;;5008667;28;19957;-60
2023/08/01 07:19:26;;;;;;;;;;;;;;;;;;5010985;28;19956;-61
2023/08/01 07:21:52;;;;;;;;;;;;;;;;;;5000688;28;20088;-60
2023/08/01 07:24:19;;;;;;;;;;;;;;;;;;5008829;28;20372;-61
2023/08/01 07:26:45;;;;;;;;;;;;;;;;;;5007477;28;19917;-60
2023/08/01 07:29:12;;;;;;;;;;;;;;;;;;5013803;28;19922;-61
2023/08/01 07:31:38;;;;;;;;;;;;;;;;;;5008418;28;19913;-61
2023/08/01 07:34:04;;;;;;;;;;;;;;;;;;5008971;28;19918;-60
2023/08/01 07:36:30;;;;;;;;;;;;;;;;;;4991335;28;20047;-59
2023/08/01 07:38:56;;;;;;;;;;;;;;;;;;5007528;28;19976;-59
2023/08/01 07:41:22;;;;;;;;;;;;;;;;;;5009219;28;20337;-61
2023/08/01 07:43:48;;;;;;;;;;;;;;;;;;5011148;28;19963;-59
2023/08/01 07:46:14;;;;;;;;;;;;;;;;;;4990975;28;19913;-60
2023/08/01 07:48:40;;;;;;;;;;;;;;;;;;5008716;28;19991;-59
2023/08/01 07:51:07;;;;;;;;;;;;;;;;;;5008002;28;20000;-60
2023/08/01 07:53:33;;;;;;;;;;;;;;;;;;5007315;28;19921;-59
2023/08/01 07:55:59;;;;;;;;;;;;;;;;;;5005763;28;19975;-63
2023/08/01 07:58:25;;;;;;;;;;;;;;;;;;5005179;28;19921;-61
2023/08/01 08:00:51;;;;;;;;;;;;;;;;;;4993418;28;20320;-60
2023/08/01 08:03:17;;;;;;;;;;;;;;;;;;5008513;28;19957;-60
2023/08/01 08:05:43;;;;;;;;;;;;;;;;;;4976642;28;19928;-64
2023/08/01 08:08:09;;;;;;;;;;;;;;;;;;4971621;28;20382;-60
2023/08/01 08:10:35;;;;;;;;;;;;;;;;;;4975211;28;19961;-61
2023/08/01 08:13:01;;;;;;;;;;;;;;;;;;4977160;28;19966;-63
2023/08/01 08:15:26;;;;;;;;;;;;;;;;;;4968769;28;20397;-57
2023/08/01 08:17:52;;;;;;;;;;;;;;;;;;4969445;28;19918;-59
2023/08/01 08:20:18;;;;;;;;;;;;;;;;;;4973970;28;19968;-60
2023/08/01 08:22:44;;;;;;;;;;;;;;;;;;4975328;28;19965;-60
2023/08/01 08:25:10;;;;;;;;;;;;;;;;;;4973507;28;20012;-59
2023/08/01 08:27:36;;;;;;;;;;;;;;;;;;4970916;28;19918;-60
2023/08/01 08:30:02;;;;;;;;;;;;;;;;;;4974989;28;19961;-59
2023/08/01 08:32:28;;;;;;;;;;;;;;;;;;4968353;28;20413;-63
2023/08/01 08:34:54;;;;;;;;;;;;;;;;;;4974079;28;20016;-61
2023/08/01 08:37:20;;;;;;;;;;;;;;;;;;4987467;28;19914;-62
2023/08/01 08:39:46;;;;;;;;;;;;;;;;;;4967820;28;19957;-60
2023/08/01 08:42:11;;;;;;;;;;;;;;;;;;4967769;28;20084;-59
2023/08/01 08:44:37;;;;;;;;;;;;;;;;;;4966625;28;19961;-60
2023/08/01 08:47:06;;;;;;;;;;;;;;;;;;4972290;28;20025;-61
2023/08/01 08:49:32;;;;;;;;;;;;;;;;;;4971726;28;19922;-60
2023/08/01 08:51:58;;;;;;;;;;;;;;;;;;4973984;28;20275;-61
2023/08/01 08:54:24;;;;;;;;;;;;;;;;;;4968877;28;20018;-57
2023/08/01 08:56:50;;;;;;;;;;;;;;;;;;4969216;28;19914;-60
2023/08/01 08:59:16;;;;;;;;;;;;;;;;;;4972898;28;20408;-62
2023/08/01 09:01:42;;;;;;;;;;;;;;;;;;4967328;28;19968;-62
2023/08/01 09:04:08;;;;;;;;;;;;;;;;;;4977955;28;19973;-59
2023/08/01 09:06:33;;;;;;;;;;;;;;;;;;5006717;28;19957;-61
2023/08/01 09:08:59;;;;;;;;;;;;;;;;;;5007125;28;21669;-59
2023/08/01 09:11:25;;;;;;;;;;;;;;;;;;5007676;28;19924;-62
2023/08/01 09:13:51;;;;;;;;;;;;;;;;;;5009277;28;19918;-60
2023/08/01 09:16:17;;;;;;;;;;;;;;;;;;5003765;28;19953;-59
2023/08/01 09:18:43;;;;;;;;;;;;;;;;;;5004542;28;19916;-61
2023/08/01 09:21:09;;;;;;;;;;;;;;;;;;5007503;28;20357;-62
2023/08/01 09:23:35;;;;;;;;;;;;;;;;;;5007944;28;19917;-60
2023/08/01 09:26:00;;;;;;;;;;;;;;;;;;5005748;28;20398;-60
2023/08/01 09:28:26;;;;;;;;;;;;;;;;;;5004191;28;19914;-61
2023/08/01 09:30:54;;;;;;;;;;;;;;;;;;5004321;28;19913;-60
2023/08/01 09:33:20;;;;;;;;;;;;;;;;;;5004748;28;20012;-60
2023/08/01 09:35:46;;;;;;;;;;;;;;;;;;5007056;28;19956;-60
2023/08/01 09:38:12;;;;;;;;;;;;;;;;;;4997384;28;20004;-60
2023/08/01 09:40:37;;;;;;;;;;;;;;;;;;5002815;28;19956;-60
2023/08/01 09:43:04;;;;;;;;;;;;;;;;;;5008018;28;19921;-60
2023/08/01 09:45:29;;;;;;;;;;;;;;;;;;5005324;28;19936;-59
2023/08/01 09:47:55;;;;;;;;;;;;;;;;;;5009281;28;19991;-59
2023/08/01 09:50:21;;;;;;;;;;;;;;;;;;5008186;28;19917;-60
2023/08/01 09:52:53;;;;;;;;;;;;;;;;;;5000062;28;19916;-60
2023/08/01 09:55:19;;;;;;;;;;;;;;;;;;5007390;28;20026;-60
2023/08/01 09:57:45;;;;;;;;;;;;;;;;;;5010595;28;20024;-59
2023/08/01 10:00:11;;;;;;;;;;;;;;;;;;5004617;28;19919;-60
2023/08/01 10:02:37;;;;;;;;;;;;;;;;;;5010363;28;19923;-59
2023/08/01 10:05:03;;;;;;;;;;;;;;;;;;5001813;28;19952;-61
2023/08/01 10:07:30;;;;;;;;;;;;;;;;;;4993294;28;19921;-61
2023/08/01 10:09:56;;;;;;;;;;;;;;;;;;4990452;28;19928;-62
2023/08/01 10:12:23;;;;;;;;;;;;;;;;;;5011869;28;19914;-60
2023/08/01 10:14:49;;;;;;;;;;;;;;;;;;5011336;28;19964;-59
2023/08/01 10:17:15;;;;;;;;;;;;;;;;;;5011457;28;19944;-60
2023/08/01 10:19:40;;;;;;;;;;;;;;;;;;5010325;28;19998;-60
2023/08/01 10:22:06;;;;;;;;;;;;;;;;;;5007552;28;19976;-62
2023/08/01 10:24:32;;;;;;;;;;;;;;;;;;5009416;28;19921;-60
2023/08/01 10:26:58;;;;;;;;;;;;;;;;;;5011492;28;19917;-60
2023/08/01 10:29:24;;;;;;;;;;;;;;;;;;5012300;28;19916;-60
2023/08/01 10:31:50;;;;;;;;;;;;;;;;;;5011742;28;19982;-60
2023/08/01 10:34:16;;;;;;;;;;;;;;;;;;5011037;28;19996;-60
2023/08/01 10:36:42;;;;;;;;;;;;;;;;;;4994410;28;19913;-60
2023/08/01 10:39:08;;;;;;;;;;;;;;;;;;5009896;28;19913;-60
2023/08/01 10:41:34;;;;;;;;;;;;;;;;;;5009682;28;20010;-60
2023/08/01 10:44:00;;;;;;;;;;;;;;;;;;5011714;28;19921;-60
2023/08/01 10:46:25;;;;;;;;;;;;;;;;;;5012084;28;20453;-60
2023/08/01 10:48:51;;;;;;;;;;;;;;;;;;5009962;28;20008;-61
2023/08/01 10:51:17;;;;;;;;;;;;;;;;;;5011767;28;19986;-61
2023/08/01 10:53:43;;;;;;;;;;;;;;;;;;5009485;28;20333;-60
2023/08/01 10:56:09;;;;;;;;;;;;;;;;;;5010808;28;19944;-61
2023/08/01 10:58:35;;;;;;;;;;;;;;;;;;5011463;28;19914;-61
2023/08/01 11:01:01;;;;;;;;;;;;;;;;;;5011792;28;20364;-60
2023/08/01 11:03:27;;;;;;;;;;;;;;;;;;5011334;28;19914;-61
2023/08/01 11:05:53;;;;;;;;;;;;;;;;;;5010803;28;20020;-60
2023/08/01 11:08:19;;;;;;;;;;;;;;;;;;5011874;28;20258;-61
2023/08/01 11:10:44;;;;;;;;;;;;;;;;;;5005803;28;19917;-61
2023/08/01 11:13:10;;;;;;;;;;;;;;;;;;5010415;28;19971;-60
2023/08/01 11:15:36;;;;;;;;;;;;;;;;;;5007407;28;19913;-61
2023/08/01 11:18:02;;;;;;;;;;;;;;;;;;5009731;28;19913;-61
2023/08/01 11:20:28;;;;;;;;;;;;;;;;;;5010033;28;20368;-60
2023/08/01 11:22:54;;;;;;;;;;;;;;;;;;5011557;28;20316;-59
2023/08/01 11:25:20;;;;;;;;;;;;;;;;;;5012991;28;19961;-61
2023/08/01 11:27:47;;;;;;;;;;;;;;;;;;5010215;28;19928;-60
2023/08/01 11:30:12;;;;;;;;;;;;;;;;;;5010090;28;19913;-60
2023/08/01 11:32:38;;;;;;;;;;;;;;;;;;5011434;28;20399;-60
2023/08/01 11:35:04;;;;;;;;;;;;;;;;;;5011009;28;19914;-60
2023/08/01 11:37:30;;;;;;;;;;;;;;;;;;5014762;28;19937;-60
2023/08/01 11:39:56;;;;;;;;;;;;;;;;;;5015289;28;19967;-61
2023/08/01 11:42:22;;;;;;;;;;;;;;;;;;5015531;28;20408;-59
2023/08/01 11:44:48;;;;;;;;;;;;;;;;;;5014218;28;19913;-59
2023/08/01 11:47:14;;;;;;;;;;;;;;;;;;5011690;28;20016;-59
2023/08/01 11:49:40;;;;;;;;;;;;;;;;;;5015316;28;19916;-60
2023/08/01 11:52:06;;;;;;;;;;;;;;;;;;5014723;28;19945;-60
2023/08/01 11:54:32;;;;;;;;;;;;;;;;;;5015355;28;19945;-61
2023/08/01 11:56:58;;;;;;;;;;;;;;;;;;5015393;28;20342;-59
2023/08/01 11:59:24;;;;;;;;;;;;;;;;;;5015021;28;20614;-62
2023/08/01 12:01:50;;;;;;;;;;;;;;;;;;5013676;28;19952;-60
2023/08/01 12:04:16;;;;;;;;;;;;;;;;;;5013980;28;20388;-59
2023/08/01 12:06:42;;;;;;;;;;;;;;;;;;5013151;28;19919;-59
2023/08/01 12:09:08;;;;;;;;;;;;;;;;;;5014509;28;20015;-61
2023/08/01 12:11:34;;;;;;;;;;;;;;;;;;5013851;28;19909;-60
2023/08/01 12:14:00;;;;;;;;;;;;;;;;;;5015006;28;20048;-60
2023/08/01 12:16:25;;;;;;;;;;;;;;;;;;5014643;28;20304;-61
2023/08/01 12:18:51;;;;;;;;;;;;;;;;;;5011269;28;19925;-60
2023/08/01 12:21:17;;;;;;;;;;;;;;;;;;5014397;28;19956;-59
2023/08/01 12:23:43;;;;;;;;;;;;;;;;;;5012773;28;19953;-62
2023/08/01 12:26:09;;;;;;;;;;;;;;;;;;5014094;28;19997;-61
2023/08/01 12:28:35;;;;;;;;;;;;;;;;;;5014404;28;19928;-61
2023/08/01 12:31:01;;;;;;;;;;;;;;;;;;5014101;28;19945;-60
2023/08/01 12:33:27;;;;;;;;;;;;;;;;;;5014372;28;19941;-61
2023/08/01 12:35:53;;;;;;;;;;;;;;;;;;5005432;28;19965;-57
2023/08/01 12:38:19;;;;;;;;;;;;;;;;;;5013794;28;20376;-61
2023/08/01 12:40:45;;;;;;;;;;;;;;;;;;5013993;28;20000;-60
2023/08/01 12:43:10;;;;;;;;;;;;;;;;;;5013760;28;19964;-60
2023/08/01 12:45:36;;;;;;;;;;;;;;;;;;5014601;28;20032;-63
2023/08/01 12:48:02;;;;;;;;;;;;;;;;;;5013466;28;19909;-63
2023/08/01 12:50:28;;;;;;;;;;;;;;;;;;5014069;28;19909;-63
2023/08/01 12:52:54;;;;;;;;;;;;;;;;;;5011103;28;20333;-63
2023/08/01 12:55:20;;;;;;;;;;;;;;;;;;5013408;28;19917;-63
2023/08/01 12:57:46;;;;;;;;;;;;;;;;;;5013972;28;19910;-64
2023/08/01 13:00:12;;;;;;;;;;;;;;;;;;5012400;28;19963;-64
2023/08/01 13:02:38;;;;;;;;;;;;;;;;;;5014212;28;20298;-61
2023/08/01 13:05:04;;;;;;;;;;;;;;;;;;5013346;28;20013;-61
2023/08/01 13:07:32;;;;;;;;;;;;;;;;;;5012789;28;20369;-64
2023/08/01 13:09:58;;;;;;;;;;;;;;;;;;5009000;28;19913;-63
2023/08/01 13:12:24;;;;;;;;;;;;;;;;;;5007459;28;19944;-64
2023/08/01 13:14:50;;;;;;;;;;;;;;;;;;5011741;28;19968;-63
2023/08/01 13:17:15;;;;;;;;;;;;;;;;;;5014254;28;20456;-63
2023/08/01 13:19:41;;;;;;;;;;;;;;;;;;5013307;28;20102;-63
2023/08/01 13:22:07;;;;;;;;;;;;;;;;;;5013180;28;19996;-63
2023/08/01 13:24:33;;;;;;;;;;;;;;;;;;5012251;28;19914;-63
2023/08/01 13:26:59;;;;;;;;;;;;;;;;;;5012302;28;19920;-61
2023/08/01 13:29:25;;;;;;;;;;;;;;;;;;5010080;28;20034;-61
2023/08/01 13:31:51;;;;;;;;;;;;;;;;;;5010986;28;19985;-61
2023/08/01 13:34:17;;;;;;;;;;;;;;;;;;5011347;28;19949;-63
2023/08/01 13:36:43;;;;;;;;;;;;;;;;;;5010770;28;19917;-63
2023/08/01 13:39:09;;;;;;;;;;;;;;;;;;5012754;28;19932;-63
2023/08/01 13:41:35;;;;;;;;;;;;;;;;;;5010915;28;19913;-63
2023/08/01 13:44:02;;;;;;;;;;;;;;;;;;5013716;28;19917;-63
2023/08/01 13:46:27;;;;;;;;;;;;;;;;;;5009954;28;19944;-63
2023/08/01 13:48:53;;;;;;;;;;;;;;;;;;5013392;28;19972;-63
2023/08/01 13:51:20;;;;;;;;;;;;;;;;;;5011937;28;19914;-63
2023/08/01 13:53:45;;;;;;;;;;;;;;;;;;5013611;28;19916;-67
2023/08/01 13:56:11;;;;;;;;;;;;;;;;;;5008995;28;19960;-64
2023/08/01 13:58:37;;;;;;;;;;;;;;;;;;5011293;28;20292;-64
2023/08/01 14:01:03;;;;;;;;;;;;;;;;;;5012681;28;19963;-64
2023/08/01 14:03:29;;;;;;;;;;;;;;;;;;5004751;28;20440;-64
2023/08/01 14:05:56;;;;;;;;;;;;;;;;;;4999724;28;19952;-64
2023/08/01 14:08:22;;;;;;;;;;;;;;;;;;5010276;28;19918;-65
2023/08/01 14:10:48;;;;;;;;;;;;;;;;;;5011229;28;19920;-64
2023/08/01 14:13:14;;;;;;;;;;;;;;;;;;5010750;28;19918;-66
2023/08/01 14:15:40;;;;;;;;;;;;;;;;;;5010237;28;19957;-65
2023/08/01 14:18:05;;;;;;;;;;;;;;;;;;5011394;28;19965;-65
2023/08/01 14:20:31;;;;;;;;;;;;;;;;;;5008092;28;19975;-65
2023/08/01 14:22:57;;;;;;;;;;;;;;;;;;5008415;28;19936;-65
2023/08/01 14:25:23;;;;;;;;;;;;;;;;;;5008041;28;20435;-65
2023/08/01 14:27:49;;;;;;;;;;;;;;;;;;5007323;28;20004;-65
2023/08/01 14:30:15;;;;;;;;;;;;;;;;;;5009410;28;20058;-64
2023/08/01 14:32:41;;;;;;;;;;;;;;;;;;4997971;28;20654;-64
2023/08/01 14:35:07;;;;;;;;;;;;;;;;;;4995212;28;20040;-66
2023/08/01 14:37:34;;;;;;;;;;;;;;;;;;4974151;28;19917;-64
2023/08/01 14:39:59;;;;;;;;;;;;;;;;;;4993049;28;19968;-66
2023/08/01 14:42:25;;;;;;;;;;;;;;;;;;4995245;28;20020;-64
2023/08/01 14:44:51;;;;;;;;;;;;;;;;;;5005125;28;20003;-65
2023/08/01 14:47:17;;;;;;;;;;;;;;;;;;5007301;28;20095;-67
2023/08/01 14:49:43;;;;;;;;;;;;;;;;;;5006966;28;20382;-65
2023/08/01 14:52:09;;;;;;;;;;;;;;;;;;5007169;28;19948;-66
2023/08/01 14:54:36;;;;;;;;;;;;;;;;;;5008041;28;20392;-67
2023/08/01 14:57:02;;;;;;;;;;;;;;;;;;5010356;28;20413;-67
2023/08/01 14:59:27;;;;;;;;;;;;;;;;;;5006685;28;19968;-67
2023/08/01 15:01:53;;;;;;;;;;;;;;;;;;5009480;28;19913;-67
2023/08/01 15:04:19;;;;;;;;;;;;;;;;;;5011837;28;19921;-68
2023/08/01 15:06:45;;;;;;;;;;;;;;;;;;5005510;28;19948;-70
2023/08/01 15:09:11;;;;;;;;;;;;;;;;;;5009191;28;20380;-69
2023/08/01 15:11:37;;;;;;;;;;;;;;;;;;5007914;28;19921;-69
2023/08/01 15:14:03;;;;;;;;;;;;;;;;;;5008690;28;19918;-68
2023/08/01 15:16:29;;;;;;;;;;;;;;;;;;5009115;28;19971;-69
2023/08/01 15:18:55;;;;;;;;;;;;;;;;;;5008693;28;20008;-68
2023/08/01 15:21:22;;;;;;;;;;;;;;;;;;5008343;28;20373;-68
2023/08/01 15:23:48;;;;;;;;;;;;;;;;;;5007694;28;20399;-68
2023/08/01 15:26:14;;;;;;;;;;;;;;;;;;5008203;28;19913;-68
2023/08/01 15:28:39;;;;;;;;;;;;;;;;;;5010878;28;20055;-68
2023/08/01 15:31:05;;;;;;;;;;;;;;;;;;4993766;28;19914;-68
2023/08/01 15:33:31;;;;;;;;;;;;;;;;;;5010368;28;19917;-65
2023/08/01 15:35:57;;;;;;;;;;;;;;;;;;5006832;28;20293;-68
2023/08/01 15:38:23;;;;;;;;;;;;;;;;;;5010267;28;19957;-68
2023/08/01 15:40:52;;;;;;;;;;;;;;;;;;5007171;28;20321;-68
2023/08/01 15:43:18;;;;;;;;;;;;;;;;;;5010242;28;19924;-68
2023/08/01 15:45:44;;;;;;;;;;;;;;;;;;5009037;28;19922;-68
2023/08/01 15:48:10;;;;;;;;;;;;;;;;;;4990900;28;20344;-67
2023/08/01 15:50:36;;;;;;;;;;;;;;;;;;4990549;28;19917;-68
2023/08/01 15:53:02;;;;;;;;;;;;;;;;;;5015217;28;19913;-68
2023/08/01 15:55:28;;;;;;;;;;;;;;;;;;5009753;28;19920;-67
2023/08/01 15:57:53;;;;;;;;;;;;;;;;;;5011219;28;20376;-67
2023/08/01 16:00:19;;;;;;;;;;;;;;;;;;5009855;28;19959;-68
2023/08/01 16:02:45;;;;;;;;;;;;;;;;;;5010532;28;19963;-69
2023/08/01 16:05:11;;;;;;;;;;;;;;;;;;5008234;28;19932;-68
2023/08/01 16:07:37;;;;;;;;;;;;;;;;;;4992931;28;19945;-67
2023/08/01 16:10:03;;;;;;;;;;;;;;;;;;5010193;28;20311;-68
2023/08/01 16:12:29;;;;;;;;;;;;;;;;;;5008922;28;20349;-68
2023/08/01 16:14:55;;;;;;;;;;;;;;;;;;5011475;28;19984;-66
2023/08/01 16:17:21;;;;;;;;;;;;;;;;;;5009839;28;19914;-66
2023/08/01 16:19:47;;;;;;;;;;;;;;;;;;5010605;28;19961;-66
2023/08/01 16:22:13;;;;;;;;;;;;;;;;;;5009203;28;19918;-66
2023/08/01 16:24:39;;;;;;;;;;;;;;;;;;5014033;28;19944;-66
2023/08/01 16:27:05;;;;;;;;;;;;;;;;;;5011307;28;20276;-66
2023/08/01 16:29:31;;;;;;;;;;;;;;;;;;5011942;28;19928;-66
2023/08/01 16:31:57;;;;;;;;;;;;;;;;;;5014229;28;19925;-66
2023/08/01 16:34:23;;;;;;;;;;;;;;;;;;5014276;28;19913;-66
2023/08/01 16:36:49;;;;;;;;;;;;;;;;;;5012317;28;19917;-66